Time;durP1;ratioP1;P1;durP2;ratioP2;P2;SDS_P1;SDS_P2;PMS_P1;PMS_P2;Temp;Humidity;BMP_temperature;BMP_pressure;BME280_temperature;BME280_humidity;BME280_pressure;Samples;Min_cycle;Max_cycle;Signal;HPM_P1;HPM_P2
2023/03/23 00:00:51;;;;;;;4.05;0.90;;;;;;;14.95;42.17;99555.38;5050162;28;20393;-64
2023/03/23 00:03:17;;;;;;;3.53;0.80;;;;;;;14.97;42.39;99556.19;5059189;28;20545;-64
2023/03/23 00:05:49;;;;;;;4.43;1.00;;;;;;;14.98;42.05;99554.38;5040279;28;20025;-64
2023/03/23 00:08:15;;;;;;;3.35;0.90;;;;;;;14.98;42.31;99554.38;5039171;28;20064;-64
2023/03/23 00:10:41;;;;;;;4.40;1.17;;;;;;;14.93;42.10;99543.91;5039251;28;20045;-64
2023/03/23 00:13:06;;;;;;;5.63;1.10;;;;;;;14.98;42.42;99552.59;5039108;28;20025;-64
2023/03/23 00:15:33;;;;;;;4.80;1.00;;;;;;;14.96;41.99;99548.25;5039522;28;20071;-64
2023/03/23 00:18:04;;;;;;;6.22;1.10;;;;;;;14.95;42.15;99542.09;5037952;28;20557;-64
2023/03/23 00:20:39;;;;;;;3.65;0.90;;;;;;;14.94;42.12;99540.34;5039117;28;20025;-64
2023/03/23 00:23:05;;;;;;;4.78;1.08;;;;;;;14.96;42.32;99545.59;5039151;28;20017;-64
2023/03/23 00:25:30;;;;;;;4.17;0.93;;;;;;;14.93;42.66;99549.22;5039220;28;20490;-64
2023/03/23 00:27:56;;;;;;;7.60;1.00;;;;;;;14.92;42.28;99548.38;5038900;28;20493;-64
2023/03/23 00:30:21;;;;;;;4.53;0.82;;;;;;;14.82;42.61;99541.63;5038939;28;20703;-64
2023/03/23 00:32:48;;;;;;;3.87;1.10;;;;;;;14.90;42.34;99533.41;5039306;28;20029;-64
2023/03/23 00:35:13;;;;;;;3.83;0.93;;;;;;;14.88;42.43;99535.25;5038912;28;20021;-64
2023/03/23 00:37:39;;;;;;;3.90;1.00;;;;;;;14.84;42.71;99537.16;5038544;28;20029;-64
2023/03/23 00:40:09;;;;;;;4.50;0.90;;;;;;;14.84;42.77;99534.53;5038950;28;20022;-64
2023/03/23 00:42:37;;;;;;;6.18;1.27;;;;;;;14.80;42.76;99534.66;5037906;28;20030;-64
2023/03/23 00:45:10;;;;;;;5.75;1.02;;;;;;;14.87;42.95;99533.53;5053189;28;20047;-64
2023/03/23 00:47:35;;;;;;;5.72;0.98;;;;;;;14.77;43.25;99536.50;5058970;28;20033;-64
2023/03/23 00:50:02;;;;;;;4.07;1.00;;;;;;;14.82;43.28;99543.44;5050310;28;20044;-64
2023/03/23 00:52:28;;;;;;;7.40;1.60;;;;;;;14.72;43.63;99537.56;5038836;28;20029;-64
2023/03/23 00:54:53;;;;;;;6.60;1.20;;;;;;;14.72;43.84;99525.19;5038418;28;20017;-64
2023/03/23 00:57:19;;;;;;;5.07;1.07;;;;;;;14.68;44.09;99512.06;5038758;28;20086;-64
2023/03/23 00:59:45;;;;;;;5.07;1.23;;;;;;;14.66;44.07;99524.50;5039931;28;20045;-64
2023/03/23 01:02:10;;;;;;;4.78;1.20;;;;;;;14.64;44.29;99533.34;5058331;28;20074;-64
2023/03/23 01:04:38;;;;;;;3.73;0.90;;;;;;;14.69;44.26;99519.09;5048425;28;20037;-64
2023/03/23 01:07:04;;;;;;;5.75;1.10;;;;;;;14.69;44.38;99524.38;5038394;28;20025;-64
2023/03/23 01:09:30;;;;;;;4.17;1.13;;;;;;;14.69;44.51;99511.13;5038040;28;20033;-64
2023/03/23 01:11:55;;;;;;;5.32;1.35;;;;;;;14.66;45.15;99519.19;5038469;28;20109;-64
2023/03/23 01:14:21;;;;;;;5.97;1.30;;;;;;;14.60;45.25;99518.47;5037858;28;20017;-64
2023/03/23 01:16:47;;;;;;;4.30;1.27;;;;;;;14.52;45.37;99517.84;5038420;28;20029;-64
2023/03/23 01:19:13;;;;;;;5.03;1.23;;;;;;;14.42;45.88;99517.28;5038256;28;20074;-64
2023/03/23 01:21:39;;;;;;;5.72;1.40;;;;;;;14.41;45.77;99514.69;5038106;28;20032;-64
2023/03/23 01:24:05;;;;;;;4.03;1.10;;;;;;;14.42;46.19;99519.06;5037728;28;20026;-64
2023/03/23 01:26:30;;;;;;;6.67;1.57;;;;;;;14.37;46.51;99518.34;5038079;28;20101;-64
2023/03/23 01:28:56;;;;;;;5.22;1.30;;;;;;;14.32;46.76;99516.69;5037651;28;20028;-64
2023/03/23 01:31:25;;;;;;;5.43;1.57;;;;;;;14.32;46.71;99515.84;5037747;28;20041;-64
2023/03/23 01:33:52;;;;;;;5.70;1.67;;;;;;;14.31;46.95;99516.75;5037461;28;20056;-64
2023/03/23 01:36:20;;;;;;;6.18;1.73;;;;;;;14.26;47.32;99514.25;5037963;28;20036;-64
2023/03/23 01:38:47;;;;;;;10.67;2.83;;;;;;;14.26;47.37;99521.34;5037569;28;20026;-65
2023/03/23 01:41:13;;;;;;;5.72;2.03;;;;;;;14.19;48.20;99512.72;5039862;28;20014;-64
2023/03/23 01:43:54;;;;;;;7.65;2.28;;;;;;;14.09;49.16;99506.84;5037406;28;20387;-64
2023/03/23 01:46:22;;;;;;;7.88;1.90;;;;;;;14.05;48.68;99507.84;5037770;28;20025;-64
2023/03/23 01:48:49;;;;;;;7.60;2.55;;;;;;;13.95;49.32;99506.38;5037595;28;20029;-64
2023/03/23 01:51:17;;;;;;;8.23;2.50;;;;;;;13.98;49.29;99511.56;5037579;28;20100;-64
2023/03/23 01:53:47;;;;;;;7.00;2.65;;;;;;;13.89;50.47;99512.75;5037351;28;20035;-64
2023/03/23 01:56:20;;;;;;;7.13;2.42;;;;;;;13.89;50.43;99513.59;5036116;28;20033;-64
2023/03/23 01:58:46;;;;;;;7.13;2.90;;;;;;;13.88;50.42;99516.31;5036930;28;20033;-64
2023/03/23 02:01:15;;;;;;;8.00;2.60;;;;;;;13.89;50.33;99507.47;5051083;28;20064;-64
2023/03/23 02:03:43;;;;;;;9.35;2.70;;;;;;;13.84;51.02;99509.34;5055056;28;20043;-64
2023/03/23 02:06:09;;;;;;;6.72;2.95;;;;;;;13.82;50.77;99506.75;5037229;28;20037;-64
2023/03/23 02:08:35;;;;;;;9.47;3.47;;;;;;;13.78;51.73;99511.28;5037065;28;20028;-64
2023/03/23 02:11:01;;;;;;;11.77;4.40;;;;;;;13.75;52.77;99511.38;5037047;28;20113;-64
2023/03/23 02:13:27;;;;;;;8.10;3.60;;;;;;;13.76;52.30;99521.03;5036993;28;20056;-64
2023/03/23 02:16:08;;;;;;;8.63;3.40;;;;;;;13.72;53.25;99516.75;5037045;28;20099;-64
2023/03/23 02:18:40;;;;;;;7.10;3.63;;;;;;;13.64;53.83;99516.97;5036709;28;20097;-64
2023/03/23 02:21:29;;;;;;;11.75;4.10;;;;;;;13.64;54.09;99508.19;5036415;28;20025;-64
2023/03/23 02:24:25;;;;;;;10.90;3.70;;;;;;;13.60;53.99;99501.22;5036467;28;20036;-64
2023/03/23 02:26:56;;;;;;;10.55;3.83;;;;;;;13.58;54.22;99508.34;5035420;28;20037;-64
2023/03/23 02:29:49;;;;;;;10.07;4.07;;;;;;;13.56;55.21;99499.56;5036219;28;20083;-65
2023/03/23 02:32:27;;;;;;;11.85;4.30;;;;;;;13.49;56.38;99498.88;5035170;28;20036;-64
2023/03/23 02:35:21;;;;;;;23.38;5.13;;;;;;;13.41;57.09;99491.16;5035314;28;20033;-64
2023/03/23 02:37:52;;;;;;;8.85;4.30;;;;;;;13.44;55.46;99491.09;5034335;28;20071;-64
2023/03/23 02:40:26;;;;;;;12.07;5.07;;;;;;;13.37;57.39;99489.47;5036659;28;20057;-64
2023/03/23 02:42:54;;;;;;;10.30;4.87;;;;;;;13.33;57.15;99493.13;5035528;28;20025;-65
2023/03/23 02:45:22;;;;;;;10.40;5.53;;;;;;;13.34;57.60;99492.22;5035918;28;20389;-65
2023/03/23 02:47:51;;;;;;;9.63;5.20;;;;;;;13.39;57.39;99490.34;5036971;28;20063;-65
2023/03/23 02:50:19;;;;;;;10.52;5.00;;;;;;;13.34;57.63;99497.50;5036502;28;20151;-64
2023/03/23 02:52:47;;;;;;;11.55;5.10;;;;;;;13.37;58.54;99505.34;5036491;28;20398;-65
2023/03/23 02:55:14;;;;;;;14.63;6.40;;;;;;;13.34;59.16;99501.03;5036562;28;20022;-64
2023/03/23 02:57:40;;;;;;;14.88;6.00;;;;;;;13.29;59.22;99491.47;5036454;28;20060;-65
2023/03/23 03:00:11;;;;;;;15.25;5.97;;;;;;;13.27;59.56;99493.31;5041259;28;20056;-65
2023/03/23 03:02:54;;;;;;;12.25;6.03;;;;;;;13.21;59.57;99492.56;5056357;28;20098;-64
2023/03/23 03:05:38;;;;;;;12.25;5.80;;;;;;;13.13;61.57;99494.53;5039175;28;20037;-65
2023/03/23 03:08:25;;;;;;;13.00;5.83;;;;;;;13.05;61.52;99491.25;5036253;28;20052;-65
2023/03/23 03:11:12;;;;;;;12.32;5.25;;;;;;;13.05;61.33;99472.75;5036336;28;20430;-64
2023/03/23 03:13:53;;;;;;;11.15;5.63;;;;;;;13.01;61.40;99479.03;5036366;28;20076;-64
2023/03/23 03:16:18;;;;;;;15.77;6.60;;;;;;;12.96;62.17;99483.56;5036399;28;20075;-65
2023/03/23 03:19:20;;;;;;;12.67;5.40;;;;;;;13.05;61.18;99478.03;5035036;28;20033;-64
2023/03/23 03:21:48;;;;;;;16.20;6.80;;;;;;;13.04;61.27;99482.47;5036387;28;20033;-64
2023/03/23 03:24:18;;;;;;;13.90;6.07;;;;;;;13.07;61.14;99489.41;5068033;28;20036;-65
2023/03/23 03:26:49;;;;;;;12.20;6.53;;;;;;;13.06;61.67;99492.97;5036241;28;20076;-65
2023/03/23 03:29:18;;;;;;;13.98;6.22;;;;;;;13.06;61.47;99490.34;5035921;28;20040;-64
2023/03/23 03:31:45;;;;;;;13.38;5.97;;;;;;;13.01;61.70;99497.53;5037374;28;20442;-64
2023/03/23 03:34:12;;;;;;;12.00;4.80;;;;;;;12.96;61.95;99483.56;5054357;28;20036;-64
2023/03/23 03:36:40;;;;;;;14.25;6.25;;;;;;;13.02;61.62;99484.28;5043739;28;20032;-65
2023/03/23 03:39:09;;;;;;;14.23;5.70;;;;;;;13.05;61.08;99488.59;5035937;28;20626;-65
2023/03/23 03:41:35;;;;;;;15.25;6.72;;;;;;;13.03;62.34;99486.00;5036086;28;20434;-64
2023/03/23 03:44:02;;;;;;;14.90;5.43;;;;;;;13.00;61.93;99487.88;5035781;28;20029;-65
2023/03/23 03:46:29;;;;;;;12.85;5.63;;;;;;;12.99;62.00;99486.97;5036238;28;20025;-64
2023/03/23 03:48:56;;;;;;;12.60;5.80;;;;;;;12.92;62.82;99477.50;5036111;28;20045;-65
2023/03/23 03:51:23;;;;;;;18.97;6.63;;;;;;;12.89;62.82;99478.44;5034753;28;20098;-65
2023/03/23 03:53:48;;;;;;;13.43;6.18;;;;;;;12.84;63.21;99485.63;5035949;28;20035;-64
2023/03/23 03:56:14;;;;;;;17.60;7.28;;;;;;;12.78;63.99;99485.78;5037945;28;20544;-64
2023/03/23 03:58:42;;;;;;;15.90;6.17;;;;;;;12.75;64.23;99485.88;5039185;28;20036;-65
2023/03/23 04:01:09;;;;;;;12.32;5.93;;;;;;;12.76;63.74;99482.31;5052538;28;20024;-64
2023/03/23 04:03:36;;;;;;;13.60;6.13;;;;;;;12.74;64.10;99489.41;5058168;28;20029;-64
2023/03/23 04:06:02;;;;;;;18.40;5.73;;;;;;;12.74;64.01;99494.69;5039401;28;20034;-65
2023/03/23 04:08:28;;;;;;;15.13;5.75;;;;;;;12.66;64.46;99496.66;5037956;28;20060;-64
2023/03/23 04:10:53;;;;;;;15.90;6.67;;;;;;;12.71;64.21;99500.06;5038160;28;20057;-64
2023/03/23 04:13:19;;;;;;;14.63;6.65;;;;;;;12.72;63.95;99505.28;5039192;28;20029;-65
2023/03/23 04:15:45;;;;;;;13.85;5.93;;;;;;;12.71;64.05;99507.97;5039461;28;20510;-64
2023/03/23 04:18:11;;;;;;;11.60;6.07;;;;;;;12.71;64.58;99500.91;5039428;28;20087;-65
2023/03/23 04:20:38;;;;;;;13.90;6.40;;;;;;;12.72;64.50;99507.94;5039095;28;20029;-65
2023/03/23 04:23:03;;;;;;;11.65;6.20;;;;;;;12.61;65.48;99510.84;5039086;28;20125;-64
2023/03/23 04:25:32;;;;;;;15.80;7.10;;;;;;;12.64;65.31;99516.03;5039226;28;20053;-64
2023/03/23 04:28:00;;;;;;;12.98;5.93;;;;;;;12.68;65.40;99526.56;5040197;28;20035;-64
2023/03/23 04:30:29;;;;;;;13.50;6.38;;;;;;;12.68;66.30;99527.41;5039178;28;20056;-64
2023/03/23 04:32:55;;;;;;;14.73;7.13;;;;;;;12.70;66.22;99530.03;5039166;28;20022;-64
2023/03/23 04:35:24;;;;;;;13.38;7.03;;;;;;;12.73;66.14;99517.59;5038740;28;20030;-64
2023/03/23 04:37:50;;;;;;;17.90;9.60;;;;;;;12.64;67.33;99525.75;5038785;28;20033;-64
2023/03/23 04:40:19;;;;;;;16.35;8.55;;;;;;;12.66;67.32;99533.63;5038779;28;20029;-64
2023/03/23 04:42:48;;;;;;;21.73;8.53;;;;;;;12.64;67.39;99537.16;5036428;28;20057;-64
2023/03/23 04:45:21;;;;;;;21.80;8.45;;;;;;;12.66;67.42;99533.63;5038560;28;20060;-64
2023/03/23 04:47:52;;;;;;;19.02;8.10;;;;;;;12.69;67.65;99541.50;5038840;28;20478;-64
2023/03/23 04:50:20;;;;;;;17.23;9.38;;;;;;;12.61;68.10;99549.59;5038613;28;20071;-64
2023/03/23 04:52:45;;;;;;;23.05;9.70;;;;;;;12.69;67.73;99560.84;5038476;28;20037;-64
2023/03/23 04:55:12;;;;;;;16.17;8.63;;;;;;;12.73;67.88;99562.50;5038566;28;20040;-64
2023/03/23 04:57:38;;;;;;;20.20;9.45;;;;;;;12.74;68.43;99566.88;5036914;28;20037;-64
2023/03/23 05:00:08;;;;;;;24.20;10.95;;;;;;;12.76;68.74;99558.94;5043077;28;20039;-64
2023/03/23 05:02:39;;;;;;;21.03;9.60;;;;;;;12.76;68.64;99553.63;5058290;28;20116;-64
2023/03/23 05:05:06;;;;;;;21.05;10.55;;;;;;;12.76;68.23;99561.56;5044465;28;20121;-64
2023/03/23 05:07:31;;;;;;;26.48;10.80;;;;;;;12.77;68.80;99558.88;5037467;28;20474;-64
2023/03/23 05:09:57;;;;;;;19.47;9.70;;;;;;;12.84;67.54;99561.38;5036666;28;20344;-64
2023/03/23 05:12:22;;;;;;;21.42;9.43;;;;;;;12.87;68.12;99564.78;5038300;28;20025;-64
2023/03/23 05:14:48;;;;;;;22.83;10.20;;;;;;;12.89;67.84;99568.28;5038166;28;20086;-64
2023/03/23 05:17:16;;;;;;;18.90;10.30;;;;;;;12.86;69.15;99555.13;5038303;28;20104;-64
2023/03/23 05:19:44;;;;;;;18.27;8.90;;;;;;;12.85;68.42;99571.03;5038081;28;20025;-64
2023/03/23 05:22:12;;;;;;;20.23;9.65;;;;;;;12.83;68.10;99568.44;5038268;28;20040;-64
2023/03/23 05:24:38;;;;;;;27.20;12.68;;;;;;;12.81;69.04;99569.38;5039091;28;20034;-64
2023/03/23 05:27:03;;;;;;;21.40;9.57;;;;;;;12.81;68.68;99585.25;5051069;28;20047;-64
2023/03/23 05:29:30;;;;;;;21.27;9.57;;;;;;;12.80;68.37;99576.44;5051094;28;20032;-64
2023/03/23 05:31:59;;;;;;;22.88;10.45;;;;;;;12.72;68.97;99579.25;5037991;28;20037;-64
2023/03/23 05:34:26;;;;;;;22.33;10.57;;;;;;;12.77;68.75;99576.50;5037842;28;20025;-64
2023/03/23 05:36:53;;;;;;;21.13;9.77;;;;;;;12.74;69.30;99582.72;5037904;28;20034;-64
2023/03/23 05:39:19;;;;;;;24.30;10.87;;;;;;;12.73;69.50;99582.78;5037765;28;20029;-64
2023/03/23 05:41:44;;;;;;;20.30;11.02;;;;;;;12.71;69.41;99579.31;5037605;28;20030;-64
2023/03/23 05:44:10;;;;;;;26.55;11.02;;;;;;;12.71;69.27;99577.53;5037547;28;20091;-64
2023/03/23 05:46:35;;;;;;;23.37;10.07;;;;;;;12.71;69.68;99579.31;5037709;28;20090;-64
2023/03/23 05:49:01;;;;;;;26.00;11.77;;;;;;;12.71;69.61;99574.03;5037846;28;20071;-64
2023/03/23 05:51:27;;;;;;;20.33;10.02;;;;;;;12.65;69.89;99580.31;5031878;28;20160;-64
2023/03/23 05:53:52;;;;;;;21.10;10.30;;;;;;;12.61;70.53;99568.09;5037680;28;20072;-64
2023/03/23 05:56:18;;;;;;;25.48;11.48;;;;;;;12.64;70.03;99568.88;5037481;28;20021;-64
2023/03/23 05:58:43;;;;;;;21.40;9.83;;;;;;;12.63;69.75;99577.69;5037164;28;20040;-64
2023/03/23 06:01:12;;;;;;;23.23;10.53;;;;;;;12.64;70.17;99573.31;5051096;28;20025;-64
2023/03/23 06:03:37;;;;;;;19.98;10.27;;;;;;;12.68;70.06;99574.09;5055462;28;20056;-64
2023/03/23 06:06:03;;;;;;;22.07;10.70;;;;;;;12.66;69.57;99576.78;5037372;28;20045;-64
2023/03/23 06:08:30;;;;;;;24.08;11.35;;;;;;;12.68;69.94;99576.75;5037166;28;20032;-64
2023/03/23 06:10:56;;;;;;;23.48;12.30;;;;;;;12.62;70.73;99580.41;5035774;28;20128;-64
2023/03/23 06:13:23;;;;;;;23.17;11.33;;;;;;;12.64;70.33;99589.16;5037024;28;20025;-64
2023/03/23 06:15:49;;;;;;;25.30;12.95;;;;;;;12.66;70.69;99592.63;5037269;28;20052;-64
2023/03/23 06:18:14;;;;;;;21.63;11.02;;;;;;;12.70;70.58;99604.00;5036977;28;20025;-64
2023/03/23 06:20:40;;;;;;;24.33;10.77;;;;;;;12.73;70.29;99614.47;5039589;28;20394;-64
2023/03/23 06:23:06;;;;;;;22.83;10.07;;;;;;;12.78;69.86;99618.75;5039380;28;20032;-64
2023/03/23 06:25:32;;;;;;;20.20;10.45;;;;;;;12.80;69.92;99616.06;5036909;28;20382;-64
2023/03/23 06:27:58;;;;;;;18.60;10.87;;;;;;;12.87;69.77;99633.50;5036724;28;20037;-64
2023/03/23 06:30:23;;;;;;;25.08;12.60;;;;;;;12.99;69.86;99628.84;5036652;28;20165;-64
2023/03/23 06:32:50;;;;;;;27.83;11.30;;;;;;;13.07;69.61;99624.22;5028766;28;20175;-64
2023/03/23 06:35:16;;;;;;;23.88;11.15;;;;;;;13.18;69.18;99624.84;5033290;28;20502;-64
2023/03/23 06:37:41;;;;;;;21.77;11.70;;;;;;;13.30;68.62;99636.00;5028921;28;20057;-64
2023/03/23 06:40:08;;;;;;;23.67;11.60;;;;;;;13.43;68.93;99633.94;5032863;28;20170;-64
2023/03/23 06:42:34;;;;;;;21.50;11.68;;;;;;;13.54;68.64;99641.59;5036326;28;20029;-64
2023/03/23 06:45:00;;;;;;;22.07;10.60;;;;;;;13.68;67.90;99642.09;5036807;28;20036;-64
2023/03/23 06:47:29;;;;;;;21.05;10.38;;;;;;;13.80;67.88;99642.66;5036928;28;20022;-64
2023/03/23 06:49:55;;;;;;;24.23;11.40;;;;;;;13.94;67.45;99643.16;5036583;28;20450;-64
2023/03/23 06:52:22;;;;;;;20.88;10.60;;;;;;;13.95;67.17;99644.91;5036810;28;20112;-64
2023/03/23 06:54:48;;;;;;;28.67;10.57;;;;;;;14.01;67.14;99649.16;5035240;28;20026;-64
2023/03/23 06:57:14;;;;;;;23.60;11.03;;;;;;;14.03;67.13;99657.94;5036669;28;20508;-64
2023/03/23 06:59:39;;;;;;;25.02;10.85;;;;;;;14.09;67.06;99659.50;5037399;28;20401;-65
2023/03/23 07:02:06;;;;;;;21.57;9.40;;;;;;;14.16;66.81;99659.28;5049627;28;20435;-64
2023/03/23 07:04:32;;;;;;;23.02;10.50;;;;;;;14.23;66.99;99665.28;5042345;28;20041;-63
2023/03/23 07:06:57;;;;;;;23.83;10.33;;;;;;;14.32;66.79;99662.34;5036312;28;20393;-64
2023/03/23 07:09:22;;;;;;;24.00;10.43;;;;;;;14.41;66.38;99670.97;5035947;28;20069;-65
2023/03/23 07:11:48;;;;;;;22.20;10.87;;;;;;;14.42;66.67;99662.97;5029922;28;20264;-64
2023/03/23 07:14:14;;;;;;;19.07;9.83;;;;;;;14.62;66.33;99667.69;5042329;28;20013;-65
2023/03/23 07:16:40;;;;;;;27.52;10.70;;;;;;;14.57;66.18;99664.28;5035695;28;20083;-65
2023/03/23 07:19:05;;;;;;;23.57;10.20;;;;;;;14.47;66.45;99670.78;5038209;28;20120;-64
2023/03/23 07:21:31;;;;;;;25.10;12.67;;;;;;;14.32;66.98;99670.31;5052163;28;20029;-64
2023/03/23 07:23:56;;;;;;;23.20;11.65;;;;;;;14.28;67.16;99671.31;5035946;28;20037;-64
2023/03/23 07:26:22;;;;;;;22.80;10.80;;;;;;;14.25;67.15;99674.06;5036472;28;20116;-64
2023/03/23 07:28:47;;;;;;;23.87;10.20;;;;;;;14.15;67.40;99669.94;5034665;28;20528;-64
2023/03/23 07:31:13;;;;;;;23.63;10.48;;;;;;;14.10;67.50;99678.00;5038136;28;20033;-64
2023/03/23 07:33:38;;;;;;;21.23;10.40;;;;;;;14.10;67.42;99690.38;5040223;28;20025;-65
2023/03/23 07:36:05;;;;;;;23.47;9.70;;;;;;;14.06;67.67;99690.47;5040348;28;20490;-65
2023/03/23 07:38:30;;;;;;;22.08;9.90;;;;;;;14.07;67.42;99689.53;5040558;28;20029;-65
2023/03/23 07:40:56;;;;;;;22.30;11.10;;;;;;;14.07;67.61;99692.19;5040591;28;20880;-65
2023/03/23 07:43:22;;;;;;;25.65;12.07;;;;;;;14.06;67.91;99690.47;5037905;28;20026;-65
2023/03/23 07:45:48;;;;;;;22.90;11.07;;;;;;;14.08;67.59;99690.44;5039721;28;20132;-65
2023/03/23 07:48:13;;;;;;;20.48;10.07;;;;;;;14.25;67.51;99697.03;5039915;28;20064;-65
2023/03/23 07:50:40;;;;;;;24.97;11.40;;;;;;;14.44;67.34;99694.72;5039825;28;20021;-65
2023/03/23 07:53:05;;;;;;;24.35;11.10;;;;;;;14.72;66.34;99693.91;5039527;28;20022;-65
2023/03/23 07:55:30;;;;;;;20.00;9.70;;;;;;;14.93;65.85;99687.97;5038698;28;20088;-65
2023/03/23 07:57:56;;;;;;;21.63;10.20;;;;;;;15.14;65.24;99685.53;5037765;28;20060;-65
2023/03/23 08:00:23;;;;;;;24.20;9.57;;;;;;;15.35;64.83;99683.09;5046228;28;20052;-65
2023/03/23 08:02:52;;;;;;;24.40;10.10;;;;;;;15.45;64.49;99678.38;5058653;28;20271;-65
2023/03/23 08:05:20;;;;;;;24.08;11.32;;;;;;;15.55;64.48;99678.88;5042714;28;20038;-64
2023/03/23 08:07:47;;;;;;;20.33;9.48;;;;;;;15.71;63.91;99671.28;5041152;28;20028;-64
2023/03/23 08:10:14;;;;;;;18.10;9.95;;;;;;;15.84;63.36;99677.03;5038979;28;20044;-64
2023/03/23 08:12:41;;;;;;;18.05;9.45;;;;;;;15.88;63.55;99673.34;5051166;28;20036;-64
2023/03/23 08:15:08;;;;;;;16.13;9.33;;;;;;;15.98;62.95;99672.13;5040225;28;20016;-64
2023/03/23 08:17:34;;;;;;;26.60;10.82;;;;;;;16.07;62.87;99666.47;5040072;28;20029;-64
2023/03/23 08:20:00;;;;;;;19.38;9.10;;;;;;;16.23;62.61;99660.59;5059228;28;20087;-64
2023/03/23 08:22:28;;;;;;;18.63;9.30;;;;;;;16.39;62.13;99662.69;5046108;28;20021;-65
2023/03/23 08:24:54;;;;;;;18.43;8.27;;;;;;;16.63;61.20;99655.53;5039129;28;20817;-64
2023/03/23 08:27:19;;;;;;;19.13;8.35;;;;;;;16.73;60.88;99658.69;5037140;28;20060;-65
2023/03/23 08:29:45;;;;;;;16.77;7.97;;;;;;;16.94;60.13;99663.16;5038898;28;20104;-65
2023/03/23 08:32:12;;;;;;;18.63;9.32;;;;;;;17.26;59.28;99672.63;5038952;28;20025;-65
2023/03/23 08:34:38;;;;;;;17.92;9.18;;;;;;;17.60;58.50;99673.84;5038690;28;20051;-64
2023/03/23 08:37:04;;;;;;;15.80;7.37;;;;;;;17.85;58.20;99678.09;5038315;28;20021;-65
2023/03/23 08:39:30;;;;;;;16.02;7.15;;;;;;;18.12;57.75;99678.72;5070728;28;20041;-65
2023/03/23 08:41:56;;;;;;;15.98;7.90;;;;;;;18.09;57.50;99676.19;5070673;28;20025;-65
2023/03/23 08:44:22;;;;;;;17.63;8.20;;;;;;;17.73;57.59;99684.81;5038715;28;20032;-65
2023/03/23 08:46:47;;;;;;;16.53;7.07;;;;;;;17.57;58.62;99684.63;5038345;28;20032;-65
2023/03/23 08:49:13;;;;;;;15.97;8.97;;;;;;;17.22;59.01;99694.00;5038954;28;20017;-64
2023/03/23 08:51:39;;;;;;;15.90;7.43;;;;;;;16.89;59.60;99683.78;5038912;28;20482;-64
2023/03/23 08:54:05;;;;;;;16.52;7.63;;;;;;;16.50;60.62;99689.69;5038512;28;20033;-64
2023/03/23 08:56:31;;;;;;;14.07;7.23;;;;;;;16.53;60.54;99692.25;5038246;28;20033;-65
2023/03/23 08:58:56;;;;;;;11.60;6.30;;;;;;;16.58;60.52;99697.38;5038465;28;20390;-65
2023/03/23 09:01:21;;;;;;;15.20;6.37;;;;;;;16.54;60.85;99696.66;5044699;28;20323;-65
2023/03/23 09:03:48;;;;;;;16.03;7.60;;;;;;;16.52;60.84;99701.16;5038207;28;20104;-65
2023/03/23 09:06:13;;;;;;;12.10;6.55;;;;;;;16.46;60.60;99696.94;5038086;28;20060;-65
2023/03/23 09:08:39;;;;;;;14.73;7.07;;;;;;;16.38;61.24;99699.00;5037984;28;20057;-65
2023/03/23 09:11:07;;;;;;;19.07;8.67;;;;;;;16.29;61.48;99707.31;5055431;28;20048;-65
2023/03/23 09:13:38;;;;;;;15.50;7.93;;;;;;;16.32;61.26;99705.44;5044705;28;20268;-65
2023/03/23 09:16:05;;;;;;;15.15;7.13;;;;;;;16.33;61.50;99703.63;5038120;28;20026;-65
2023/03/23 09:18:32;;;;;;;16.70;7.55;;;;;;;16.42;61.54;99702.41;5037787;28;20025;-65
2023/03/23 09:20:58;;;;;;;14.60;7.18;;;;;;;16.42;61.73;99708.63;5037755;28;20029;-64
2023/03/23 09:23:24;;;;;;;12.45;6.65;;;;;;;16.52;61.16;99698.50;5037980;28;20386;-65
2023/03/23 09:25:51;;;;;;;14.77;6.83;;;;;;;16.60;60.96;99695.53;5037711;28;20033;-65
2023/03/23 09:28:17;;;;;;;11.05;5.88;;;;;;;16.58;61.08;99698.25;5037620;28;20036;-65
2023/03/23 09:30:44;;;;;;;14.52;7.53;;;;;;;16.64;61.21;99692.72;5037398;28;20378;-65
2023/03/23 09:33:09;;;;;;;11.90;6.40;;;;;;;16.68;60.88;99693.47;5037910;28;20092;-65
2023/03/23 09:35:37;;;;;;;16.30;6.70;;;;;;;16.75;61.01;99688.75;5036220;28;20521;-65
2023/03/23 09:38:03;;;;;;;12.60;6.10;;;;;;;16.84;60.47;99699.03;5037481;28;20031;-65
2023/03/23 09:40:50;;;;;;;13.52;6.32;;;;;;;16.85;60.36;99700.78;5037382;28;20442;-65
2023/03/23 09:43:16;;;;;;;14.30;6.38;;;;;;;16.94;60.52;99688.91;5037728;28;20025;-65
2023/03/23 09:45:56;;;;;;;16.60;6.67;;;;;;;16.99;60.36;99696.72;5037505;28;20036;-65
2023/03/23 09:48:46;;;;;;;14.27;6.32;;;;;;;17.03;60.45;99687.72;5037416;28;20033;-65
2023/03/23 09:51:32;;;;;;;13.07;5.60;;;;;;;17.05;60.06;99683.19;5037827;28;20040;-65
2023/03/23 09:54:04;;;;;;;16.17;7.17;;;;;;;17.09;59.73;99684.81;5043164;28;20021;-65
2023/03/23 09:56:32;;;;;;;14.35;6.30;;;;;;;17.12;60.03;99687.34;5033264;28;20017;-64
2023/03/23 09:59:10;;;;;;;16.08;6.28;;;;;;;17.07;59.97;99699.97;5034217;28;20021;-64
2023/03/23 10:01:41;;;;;;;13.65;6.32;;;;;;;17.20;60.11;99716.28;5052857;28;20029;-65
2023/03/23 10:04:28;;;;;;;10.90;5.85;;;;;;;17.18;59.98;99702.19;5050171;28;20401;-65
2023/03/23 10:07:00;;;;;;;10.10;5.50;;;;;;;17.36;59.80;99695.25;5045433;28;20083;-65
2023/03/23 10:09:26;;;;;;;13.35;5.70;;;;;;;17.52;59.43;99690.13;5056768;28;20399;-65
2023/03/23 10:12:09;;;;;;;12.10;6.15;;;;;;;17.48;58.81;99684.09;5044649;28;20424;-65
2023/03/23 10:14:43;;;;;;;13.40;6.05;;;;;;;17.52;58.62;99678.63;5035191;28;20025;-65
2023/03/23 10:17:19;;;;;;;12.07;5.90;;;;;;;17.54;58.66;99672.28;5035199;28;20021;-65
2023/03/23 10:20:14;;;;;;;11.80;5.40;;;;;;;17.48;58.75;99689.41;5037664;28;20049;-65
2023/03/23 10:22:47;;;;;;;11.27;5.38;;;;;;;17.62;58.61;99685.28;5040683;28;20401;-65
2023/03/23 10:25:13;;;;;;;10.07;5.32;;;;;;;17.61;58.61;99678.22;5036675;28;20528;-65
2023/03/23 10:27:57;;;;;;;12.10;5.50;;;;;;;17.57;58.81;99681.97;5036272;28;20405;-65
2023/03/23 10:30:31;;;;;;;10.25;5.25;;;;;;;17.44;58.17;99686.94;5036696;28;20079;-65
2023/03/23 10:33:03;;;;;;;10.43;4.70;;;;;;;17.72;58.38;99686.59;5037096;28;20033;-65
2023/03/23 10:35:38;;;;;;;10.13;4.60;;;;;;;17.94;57.86;99681.22;5036404;28;20014;-65
2023/03/23 10:38:11;;;;;;;11.73;4.95;;;;;;;18.36;57.26;99676.72;5036682;28;20021;-65
2023/03/23 10:40:47;;;;;;;10.88;4.75;;;;;;;18.66;56.23;99683.38;5036572;28;20083;-65
2023/03/23 10:43:13;;;;;;;10.07;4.70;;;;;;;18.93;55.99;99681.19;5036592;28;20079;-65
2023/03/23 10:45:43;;;;;;;9.60;4.70;;;;;;;19.12;55.36;99676.78;5036360;28;20025;-65
2023/03/23 10:48:21;;;;;;;9.77;4.70;;;;;;;19.35;55.15;99684.53;5035155;28;20033;-65
2023/03/23 10:50:52;;;;;;;10.93;4.97;;;;;;;19.68;54.20;99688.25;5036562;28;20030;-65
2023/03/23 10:53:23;;;;;;;11.85;4.90;;;;;;;19.92;53.37;99686.13;5036449;28;20034;-65
2023/03/23 10:55:49;;;;;;;9.10;5.10;;;;;;;19.90;53.72;99673.78;5035920;28;20102;-65
2023/03/23 10:58:29;;;;;;;9.50;4.37;;;;;;;20.05;52.96;99670.31;5035850;28;20081;-65
2023/03/23 11:00:56;;;;;;;9.52;4.75;;;;;;;20.25;52.68;99665.69;5044825;28;20025;-65
2023/03/23 11:03:28;;;;;;;14.57;5.60;;;;;;;20.28;52.30;99651.31;5042437;28;20043;-65
2023/03/23 11:05:57;;;;;;;9.88;4.80;;;;;;;20.31;51.50;99645.78;5030274;28;20038;-65
2023/03/23 11:08:25;;;;;;;12.18;5.32;;;;;;;20.23;52.37;99649.72;5039568;28;20454;-65
2023/03/23 11:10:58;;;;;;;10.40;5.07;;;;;;;20.09;52.11;99644.28;5038446;28;20505;-65
2023/03/23 11:13:33;;;;;;;13.73;5.22;;;;;;;20.13;51.66;99628.91;5041167;28;20082;-65
2023/03/23 11:16:00;;;;;;;8.85;4.72;;;;;;;20.05;52.47;99616.84;5052084;28;20389;-65
2023/03/23 11:18:40;;;;;;;10.93;4.80;;;;;;;20.26;52.30;99623.81;5054733;28;20115;-65
2023/03/23 11:21:08;;;;;;;10.63;4.85;;;;;;;20.25;51.98;99620.25;5041118;28;20025;-65
2023/03/23 11:23:42;;;;;;;13.27;5.53;;;;;;;20.21;51.46;99605.34;5040035;28;20049;-65
2023/03/23 11:26:27;;;;;;;10.95;5.60;;;;;;;20.15;51.14;99601.19;5058135;28;20503;-65
2023/03/23 11:29:10;;;;;;;12.65;6.63;;;;;;;20.09;51.77;99601.53;5040418;28;20475;-65
2023/03/23 11:31:41;;;;;;;20.48;9.45;;;;;;;20.36;51.20;99600.94;5039328;28;20031;-65